createdAt,value
2023-01-03T00:01:08.748Z,101753.63
2023-01-03T00:03:33.707Z,101761.59
2023-01-03T00:05:57.217Z,101756.38
2023-01-03T00:08:20.807Z,101764.69
2023-01-03T00:10:44.468Z,101767.38
2023-01-03T00:13:07.135Z,101771.03
2023-01-03T00:15:30.722Z,101773.88
2023-01-03T00:17:55.718Z,101767.69
2023-01-03T00:20:20.841Z,101769.34
2023-01-03T00:22:44.483Z,101772.69
2023-01-03T00:25:08.776Z,101778.53
2023-01-03T00:27:32.401Z,101780.75
2023-01-03T00:29:55.968Z,101793.78
2023-01-03T00:32:19.633Z,101793.78
2023-01-03T00:34:45.739Z,101804.00
2023-01-03T00:37:10.706Z,101800.66
2023-01-03T00:39:35.334Z,101800.75
2023-01-03T00:41:58.955Z,101808.91
2023-01-03T00:44:22.778Z,101811.50
2023-01-03T00:46:46.656Z,101831.13
2023-01-03T00:49:11.206Z,101820.91
2023-01-03T00:51:36.651Z,101830.28
2023-01-03T00:54:03.766Z,101831.13
2023-01-03T00:56:33.498Z,101841.31
2023-01-03T00:58:57.695Z,101834.19
2023-01-03T01:01:24.890Z,101839.19
2023-01-03T01:03:52.253Z,101841.84
2023-01-03T01:06:19.451Z,101834.66
2023-01-03T01:08:43.549Z,101853.31
2023-01-03T01:11:08.702Z,101858.47
2023-01-03T01:13:34.059Z,101861.34
2023-01-03T01:16:02.283Z,101859.63
2023-01-03T01:18:25.863Z,101873.81
2023-01-03T01:20:49.433Z,101881.25
2023-01-03T01:23:12.991Z,101888.59
2023-01-03T01:25:36.564Z,101888.25
2023-01-03T01:28:01.435Z,101892.78
2023-01-03T01:30:25.012Z,101902.03
2023-01-03T01:32:48.512Z,101903.31
2023-01-03T01:35:12.067Z,101905.25
2023-01-03T01:37:35.607Z,101914.56
2023-01-03T01:39:59.168Z,101917.50
2023-01-03T01:42:51.722Z,101913.78
2023-01-03T01:45:16.724Z,101922.19
2023-01-03T01:47:53.245Z,101921.13
2023-01-03T01:50:28.540Z,101916.31
2023-01-03T01:52:56.379Z,101925.66
2023-01-03T01:55:23.653Z,101923.38
2023-01-03T01:57:47.882Z,101927.84
2023-01-03T02:00:13.227Z,101923.97
2023-01-03T02:02:43.989Z,101924.38
2023-01-03T02:05:10.507Z,101933.84
2023-01-03T02:07:35.293Z,101934.50
2023-01-03T02:10:00.318Z,101928.19
2023-01-03T02:12:51.773Z,101936.25
2023-01-03T02:15:26.771Z,101935.16
2023-01-03T02:18:11.218Z,101938.31
2023-01-03T02:20:56.278Z,101938.06
2023-01-03T02:24:08.493Z,101945.78
2023-01-03T02:27:02.060Z,101954.69
2023-01-03T02:30:10.943Z,101958.00
2023-01-03T02:32:44.896Z,101960.63
2023-01-03T02:35:16.764Z,101962.09
2023-01-03T02:37:45.535Z,101956.59
2023-01-03T02:40:17.093Z,101964.97
2023-01-03T02:43:02.106Z,101960.81
2023-01-03T02:46:00.396Z,101967.81
2023-01-03T02:48:42.000Z,101972.47
2023-01-03T02:51:15.030Z,101974.66
2023-01-03T02:53:46.490Z,101971.88
2023-01-03T02:56:15.769Z,101973.47
2023-01-03T02:58:41.585Z,101976.72
2023-01-03T03:01:09.095Z,101990.13
2023-01-03T03:03:37.997Z,101992.19
2023-01-03T03:06:09.263Z,102002.69
2023-01-03T03:08:32.836Z,102003.03
2023-01-03T03:11:14.332Z,101999.09
2023-01-03T03:13:43.060Z,102009.88
2023-01-03T03:16:40.518Z,102006.34
2023-01-03T03:19:36.471Z,102016.28
2023-01-03T03:22:17.632Z,102013.34
2023-01-03T03:24:52.830Z,102018.25
2023-01-03T03:27:39.356Z,102022.25
2023-01-03T03:30:05.935Z,102020.09
2023-01-03T03:32:35.545Z,102026.06
2023-01-03T03:35:01.007Z,102031.25
2023-01-03T03:37:28.799Z,102029.59
2023-01-03T03:40:10.264Z,102026.59
2023-01-03T03:43:01.392Z,102028.44
2023-01-03T03:45:33.481Z,102031.78
2023-01-03T03:48:07.069Z,102037.34
2023-01-03T03:50:35.479Z,102033.53
2023-01-03T03:53:04.846Z,102036.09
2023-01-03T03:55:34.064Z,102046.50
2023-01-03T03:58:03.175Z,102047.91
2023-01-03T04:00:30.434Z,102044.47
2023-01-03T04:02:57.335Z,102046.50
2023-01-03T04:05:24.846Z,102049.91
2023-01-03T04:07:48.613Z,102052.84
2023-01-03T04:10:13.576Z,102049.31
2023-01-03T04:12:37.176Z,102051.69
2023-01-03T04:15:00.991Z,102051.06
2023-01-03T04:17:24.543Z,102052.19
2023-01-03T04:19:49.581Z,102058.81
2023-01-03T04:22:13.152Z,102072.94
2023-01-03T04:24:36.724Z,102071.91
2023-01-03T04:27:00.247Z,102075.69
2023-01-03T04:29:23.800Z,102080.59
2023-01-03T04:31:47.440Z,102082.06
2023-01-03T04:34:11.095Z,102079.88
2023-01-03T04:36:36.029Z,102084.09
2023-01-03T04:38:59.667Z,102085.75
2023-01-03T04:41:23.235Z,102087.09
2023-01-03T04:44:04.607Z,102100.44
2023-01-03T04:46:28.733Z,102106.16
2023-01-03T04:48:52.251Z,102107.16
2023-01-03T04:51:16.674Z,102112.16
2023-01-03T04:53:41.605Z,102111.88
2023-01-03T04:56:05.567Z,102113.53
2023-01-03T04:58:29.075Z,102118.31
2023-01-03T05:00:53.055Z,102119.75
2023-01-03T05:03:17.538Z,102126.41
2023-01-03T05:05:42.862Z,102124.56
2023-01-03T05:08:07.491Z,102129.72
2023-01-03T05:10:32.509Z,102136.06
2023-01-03T05:13:00.750Z,102143.69
2023-01-03T05:15:24.403Z,102148.22
2023-01-03T05:17:47.900Z,102153.97
2023-01-03T05:20:29.354Z,102149.88
2023-01-03T05:23:10.404Z,102155.31
2023-01-03T05:25:49.204Z,102153.09
2023-01-03T05:28:17.291Z,102158.28
2023-01-03T05:30:41.135Z,102162.78
2023-01-03T05:33:04.916Z,102160.75
2023-01-03T05:35:28.480Z,102158.91
2023-01-03T05:37:54.680Z,102162.16
2023-01-03T05:40:18.338Z,102162.47
2023-01-03T05:42:43.979Z,102166.72
2023-01-03T05:45:09.531Z,102161.50
2023-01-03T05:47:33.144Z,102169.22
2023-01-03T05:49:56.678Z,102170.72
2023-01-03T05:52:20.260Z,102169.97
2023-01-03T05:54:43.819Z,102172.47
2023-01-03T05:57:07.386Z,102179.63
2023-01-03T05:59:32.330Z,102181.97
2023-01-03T06:01:56.097Z,102185.31
2023-01-03T06:04:20.137Z,102181.78
2023-01-03T06:06:44.209Z,102190.13
2023-01-03T06:09:07.865Z,102182.06
2023-01-03T06:11:31.513Z,102187.53
2023-01-03T06:13:55.094Z,102188.50
2023-01-03T06:16:39.395Z,102184.56
2023-01-03T06:19:05.069Z,102193.31
2023-01-03T06:21:29.050Z,102192.72
2023-01-03T06:23:52.694Z,102189.16
2023-01-03T06:26:16.981Z,102197.94
2023-01-03T06:28:40.682Z,102207.28
2023-01-03T06:31:06.517Z,102208.25
2023-01-03T06:33:31.571Z,102203.34
2023-01-03T06:35:55.109Z,102203.09
2023-01-03T06:38:18.692Z,102207.13
2023-01-03T06:40:48.609Z,102206.97
2023-01-03T06:43:12.203Z,102204.19
2023-01-03T06:45:52.356Z,102205.28
2023-01-03T06:48:33.460Z,102212.44
2023-01-03T06:51:15.880Z,102221.59
2023-01-03T06:53:43.569Z,102227.03
2023-01-03T06:56:08.347Z,102227.09
2023-01-03T06:58:32.155Z,102229.78
2023-01-03T07:00:58.026Z,102231.50
2023-01-03T07:03:22.506Z,102229.09
2023-01-03T07:05:46.106Z,102237.59
2023-01-03T07:08:11.149Z,102234.59
2023-01-03T07:10:34.738Z,102241.81
2023-01-03T07:13:18.641Z,102249.22
2023-01-03T07:15:45.413Z,102246.00
2023-01-03T07:18:08.977Z,102249.28
2023-01-03T07:20:32.589Z,102252.47
2023-01-03T07:22:56.096Z,102252.63
2023-01-03T07:25:21.444Z,102258.78
2023-01-03T07:27:44.988Z,102255.53
2023-01-03T07:30:11.811Z,102266.53
2023-01-03T07:32:35.308Z,102268.84
2023-01-03T07:34:58.919Z,102265.09
2023-01-03T07:37:22.467Z,102272.63
2023-01-03T07:39:46.111Z,102279.19
2023-01-03T07:42:28.571Z,102279.44
2023-01-03T07:44:52.229Z,102285.81
2023-01-03T07:47:16.261Z,102284.75
2023-01-03T07:49:39.812Z,102287.09
2023-01-03T07:52:03.400Z,102292.06
2023-01-03T07:54:27.058Z,102292.19
2023-01-03T07:56:51.749Z,102294.63
2023-01-03T07:59:17.164Z,102298.22
2023-01-03T08:01:40.851Z,102299.44
2023-01-03T08:04:04.542Z,102302.38
2023-01-03T08:06:28.065Z,102294.41
2023-01-03T08:09:06.542Z,102297.75
2023-01-03T08:11:47.302Z,102299.97
2023-01-03T08:14:11.112Z,102302.53
2023-01-03T08:16:36.141Z,102307.56
2023-01-03T08:18:59.822Z,102306.00
2023-01-03T08:21:23.372Z,102310.84
2023-01-03T08:23:48.917Z,102313.53
2023-01-03T08:26:16.208Z,102314.69
2023-01-03T08:28:40.809Z,102319.16
2023-01-03T08:31:10.041Z,102328.06
2023-01-03T08:33:43.067Z,102321.66
2023-01-03T08:36:09.634Z,102326.88
2023-01-03T08:38:37.806Z,102331.50
2023-01-03T08:41:03.445Z,102329.16
2023-01-03T08:43:27.248Z,102331.06
2023-01-03T08:45:50.919Z,102327.00
2023-01-03T08:48:14.442Z,102337.00
2023-01-03T08:50:39.982Z,102336.38
2023-01-03T08:53:05.258Z,102336.47
2023-01-03T08:55:28.856Z,102333.53
2023-01-03T08:57:52.459Z,102341.31
2023-01-03T09:00:17.084Z,102339.31
2023-01-03T09:02:40.937Z,102351.75
2023-01-03T09:05:05.244Z,102361.91
2023-01-03T09:07:30.220Z,102355.81
2023-01-03T09:09:53.916Z,102363.81
2023-01-03T09:12:17.401Z,102357.47
2023-01-03T09:14:40.974Z,102362.28
2023-01-03T09:17:04.512Z,102362.13
2023-01-03T09:19:28.061Z,102368.53
2023-01-03T09:21:51.656Z,102371.53
2023-01-03T09:24:16.801Z,102373.91
2023-01-03T09:26:40.306Z,102380.97
2023-01-03T09:29:04.492Z,102379.81
2023-01-03T09:31:29.933Z,102390.00
2023-01-03T09:33:53.635Z,102388.97
2023-01-03T09:36:17.131Z,102386.00
2023-01-03T09:38:40.858Z,102385.28
2023-01-03T09:41:08.987Z,102383.44
2023-01-03T09:43:41.099Z,102379.41
2023-01-03T09:46:06.658Z,102390.50
2023-01-03T09:48:36.343Z,102381.41
2023-01-03T09:51:21.193Z,102384.75
2023-01-03T09:54:01.689Z,102372.94
2023-01-03T09:56:44.156Z,102382.22
2023-01-03T09:59:31.179Z,102373.78
2023-01-03T10:02:25.190Z,102380.16
2023-01-03T10:05:28.719Z,102383.75
2023-01-03T10:08:08.149Z,102383.31
2023-01-03T10:10:40.770Z,102376.44
2023-01-03T10:13:20.455Z,102375.06
2023-01-03T10:15:57.482Z,102379.16
2023-01-03T10:18:40.212Z,102382.28
2023-01-03T10:21:08.857Z,102384.06
2023-01-03T10:23:32.854Z,102378.41
2023-01-03T10:25:57.444Z,102389.28
2023-01-03T10:28:25.827Z,102391.97
2023-01-03T10:31:09.530Z,102395.09
2023-01-03T10:33:36.018Z,102391.53
2023-01-03T10:35:59.585Z,102393.63
2023-01-03T10:38:25.692Z,102396.50
2023-01-03T10:40:54.413Z,102396.38
2023-01-03T10:43:27.152Z,102393.09
2023-01-03T10:45:56.926Z,102393.16
2023-01-03T10:48:20.760Z,102392.78
2023-01-03T10:50:44.423Z,102390.03
2023-01-03T10:53:10.379Z,102388.34
2023-01-03T10:55:36.470Z,102387.28
2023-01-03T10:58:02.888Z,102387.47
2023-01-03T11:00:32.761Z,102388.47
2023-01-03T11:03:03.632Z,102391.38
2023-01-03T11:05:28.818Z,102398.97
2023-01-03T11:07:56.859Z,102393.03
2023-01-03T11:10:21.147Z,102404.69
2023-01-03T11:12:44.739Z,102391.22
2023-01-03T11:15:19.427Z,102383.13
2023-01-03T11:17:55.338Z,102386.94
2023-01-03T11:20:20.899Z,102391.81
2023-01-03T11:22:51.426Z,102393.09
2023-01-03T11:25:35.919Z,102388.41
2023-01-03T11:28:36.438Z,102390.66
2023-01-03T11:31:08.740Z,102395.56
2023-01-03T11:33:53.617Z,102392.19
2023-01-03T11:36:32.449Z,102391.63
2023-01-03T11:39:24.692Z,102386.75
2023-01-03T11:42:08.951Z,102385.75
2023-01-03T11:45:18.781Z,102379.66
2023-01-03T11:47:52.962Z,102388.47
2023-01-03T11:50:30.693Z,102385.97
2023-01-03T11:53:04.127Z,102386.16
2023-01-03T11:55:58.143Z,102381.00
2023-01-03T11:59:08.442Z,102387.50
2023-01-03T12:01:57.670Z,102385.88
2023-01-03T12:04:29.087Z,102379.53
2023-01-03T12:10:04.566Z,102378.75
2023-01-03T12:12:57.790Z,102382.59
2023-01-03T12:15:27.713Z,102382.34
2023-01-03T12:17:57.398Z,102383.59
2023-01-03T12:20:25.553Z,102383.66
2023-01-03T12:22:55.575Z,102378.56
2023-01-03T12:25:26.856Z,102381.47
2023-01-03T12:27:56.808Z,102377.69
2023-01-03T12:30:34.346Z,102377.91
2023-01-03T12:33:03.458Z,102373.34
2023-01-03T12:35:34.314Z,102368.50
2023-01-03T12:38:00.309Z,102370.44
2023-01-03T12:40:31.955Z,102365.94
2023-01-03T12:43:06.890Z,102363.19
2023-01-03T12:45:48.764Z,102374.44
2023-01-03T12:48:43.642Z,102369.41
2023-01-03T12:51:08.999Z,102371.91
2023-01-03T12:53:42.404Z,102370.41
2023-01-03T12:56:42.705Z,102373.91
2023-01-03T12:59:27.428Z,102370.03
2023-01-03T13:01:56.560Z,102377.78
2023-01-03T13:04:24.471Z,102373.03
2023-01-03T13:06:52.214Z,102381.63
2023-01-03T13:09:22.505Z,102370.03
2023-01-03T13:11:52.699Z,102374.25
2023-01-03T13:14:21.818Z,102365.06
2023-01-03T13:16:48.842Z,102361.06
2023-01-03T13:19:59.319Z,102359.06
2023-01-03T13:22:50.669Z,102354.53
2023-01-03T13:25:41.040Z,102347.97
2023-01-03T13:28:33.245Z,102349.50
2023-01-03T13:31:38.192Z,102345.94
2023-01-03T13:34:21.683Z,102355.94
2023-01-03T13:37:11.360Z,102351.69
2023-01-03T13:39:40.061Z,102350.19
2023-01-03T13:42:05.152Z,102353.97
2023-01-03T13:44:28.770Z,102350.09
2023-01-03T13:46:53.470Z,102344.41
2023-01-03T13:49:22.583Z,102351.19
2023-01-03T13:51:55.779Z,102345.75
2023-01-03T13:55:24.032Z,102346.50
2023-01-03T13:57:58.070Z,102353.63
2023-01-03T14:00:24.537Z,102354.59
2023-01-03T14:03:25.156Z,102359.97
2023-01-03T14:06:35.412Z,102349.28
2023-01-03T14:09:44.766Z,102359.69
2023-01-03T14:12:54.247Z,102352.03
2023-01-03T14:15:26.356Z,102347.31
2023-01-03T14:17:55.647Z,102349.72
2023-01-03T14:20:23.300Z,102354.25
2023-01-03T14:22:49.778Z,102356.38
2023-01-03T14:25:35.727Z,102354.78
2023-01-03T14:28:01.452Z,102353.50
2023-01-03T14:30:33.575Z,102349.81
2023-01-03T14:32:57.277Z,102360.38
2023-01-03T14:35:36.074Z,102356.22
2023-01-03T14:38:06.224Z,102357.59
2023-01-03T14:40:30.477Z,102363.13
2023-01-03T14:42:54.042Z,102369.00
2023-01-03T14:45:19.993Z,102370.16
2023-01-03T14:47:45.405Z,102374.06
2023-01-03T14:50:16.558Z,102371.81
2023-01-03T14:52:42.854Z,102366.81
2023-01-03T14:55:09.686Z,102366.53
2023-01-03T14:57:38.890Z,102359.69
2023-01-03T15:00:03.382Z,102369.88
2023-01-03T15:02:38.335Z,102367.06
2023-01-03T15:05:03.666Z,102371.94
2023-01-03T15:07:34.406Z,102375.13
2023-01-03T15:10:14.852Z,102372.69
2023-01-03T15:12:41.737Z,102376.00
2023-01-03T15:15:23.493Z,102371.88
2023-01-03T15:17:49.428Z,102371.66
2023-01-03T15:20:19.048Z,102370.31
2023-01-03T15:22:43.844Z,102380.34
2023-01-03T15:25:16.893Z,102379.13
2023-01-03T15:27:45.450Z,102374.00
2023-01-03T15:30:29.016Z,102376.25
2023-01-03T15:33:02.082Z,102383.00
2023-01-03T15:35:36.466Z,102391.31
2023-01-03T15:38:02.415Z,102389.03
2023-01-03T15:40:26.145Z,102394.44
2023-01-03T15:43:07.675Z,102388.72
2023-01-03T15:45:39.072Z,102386.34
2023-01-03T15:48:07.053Z,102391.97
2023-01-03T15:50:42.923Z,102398.59
2023-01-03T15:53:06.524Z,102401.91
2023-01-03T15:55:30.049Z,102407.09
2023-01-03T15:57:54.854Z,102412.66
2023-01-03T16:00:22.939Z,102410.19
2023-01-03T16:02:46.863Z,102405.91
2023-01-03T16:05:19.732Z,102408.84
2023-01-03T16:07:46.514Z,102403.72
2023-01-03T16:10:12.501Z,102406.59
2023-01-03T16:12:41.612Z,102403.16
2023-01-03T16:15:08.693Z,102414.91
2023-01-03T16:17:33.553Z,102410.50
2023-01-03T16:19:59.922Z,102403.03
2023-01-03T16:22:49.472Z,102411.28
2023-01-03T16:25:17.035Z,102414.13
2023-01-03T16:27:40.695Z,102412.56
2023-01-03T16:30:04.542Z,102410.03
2023-01-03T16:32:30.818Z,102408.53
2023-01-03T16:35:03.085Z,102404.28
2023-01-03T16:37:27.081Z,102405.25
2023-01-03T16:39:50.578Z,102404.53
2023-01-03T16:42:15.657Z,102417.06
2023-01-03T16:44:41.243Z,102415.44
2023-01-03T16:47:09.240Z,102410.22
2023-01-03T16:49:35.557Z,102413.06
2023-01-03T16:51:59.382Z,102421.94
2023-01-03T16:54:22.928Z,102417.59
2023-01-03T16:56:47.303Z,102426.16
2023-01-03T16:59:16.255Z,102428.66
2023-01-03T17:01:39.881Z,102425.59
2023-01-03T17:04:03.617Z,102423.91
2023-01-03T17:06:38.075Z,102433.41
2023-01-03T17:09:05.525Z,102424.84
2023-01-03T17:11:29.111Z,102417.00
2023-01-03T17:14:02.543Z,102417.94
2023-01-03T17:16:27.665Z,102420.59
2023-01-03T17:18:53.468Z,102413.69
2023-01-03T17:21:26.205Z,102422.63
2023-01-03T17:23:50.234Z,102418.22
2023-01-03T17:26:17.394Z,102417.50
2023-01-03T17:28:41.264Z,102426.69
2023-01-03T17:31:04.900Z,102425.78
2023-01-03T17:33:34.056Z,102425.63
2023-01-03T17:35:58.209Z,102422.13
2023-01-03T17:38:26.663Z,102424.03
2023-01-03T17:40:52.783Z,102425.88
2023-01-03T17:43:22.345Z,102430.13
2023-01-03T17:46:03.186Z,102434.69
2023-01-03T17:48:44.242Z,102436.66
2023-01-03T17:51:12.551Z,102427.75
2023-01-03T17:53:36.122Z,102433.03
2023-01-03T17:55:59.711Z,102442.00
2023-01-03T17:58:33.402Z,102431.53
2023-01-03T18:00:57.267Z,102431.56
2023-01-03T18:03:20.875Z,102430.81
2023-01-03T18:05:44.953Z,102417.41
2023-01-03T18:08:19.232Z,102425.41
2023-01-03T18:10:46.731Z,102418.59
2023-01-03T18:13:20.688Z,102423.09
2023-01-03T18:15:44.374Z,102422.25
2023-01-03T18:18:11.866Z,102412.53
2023-01-03T18:20:35.522Z,102409.97
2023-01-03T18:22:59.995Z,102405.31
2023-01-03T18:25:26.631Z,102396.66
2023-01-03T18:27:54.252Z,102397.38
2023-01-03T18:30:18.284Z,102401.09
2023-01-03T18:32:42.111Z,102400.34
2023-01-03T18:35:07.011Z,102403.84
2023-01-03T18:37:35.171Z,102405.66
2023-01-03T18:39:58.866Z,102400.63
2023-01-03T18:42:41.245Z,102404.94
2023-01-03T18:45:05.638Z,102402.25
2023-01-03T18:47:29.235Z,102401.28
2023-01-03T18:49:52.941Z,102409.47
2023-01-03T18:52:25.665Z,102410.34
2023-01-03T18:54:49.377Z,102409.56
2023-01-03T18:57:13.691Z,102408.56
2023-01-03T18:59:38.804Z,102402.41
2023-01-03T19:02:02.460Z,102408.66
2023-01-03T19:04:26.175Z,102401.47
2023-01-03T19:06:52.174Z,102405.97
2023-01-03T19:09:22.511Z,102411.00
2023-01-03T19:11:46.387Z,102414.34
2023-01-03T19:14:12.794Z,102408.09
2023-01-03T19:16:40.034Z,102411.53
2023-01-03T19:19:04.751Z,102410.63
2023-01-03T19:21:33.794Z,102404.34
2023-01-03T19:24:02.856Z,102406.22
2023-01-03T19:26:32.316Z,102393.53
2023-01-03T19:29:01.900Z,102395.31
2023-01-03T19:31:27.281Z,102387.97
2023-01-03T19:33:52.346Z,102392.22
2023-01-03T19:36:17.336Z,102386.69
2023-01-03T19:38:40.857Z,102379.28
2023-01-03T19:41:04.629Z,102379.19
2023-01-03T19:43:35.023Z,102375.03
2023-01-03T19:45:58.711Z,102367.66
2023-01-03T19:48:26.400Z,102361.38
2023-01-03T19:50:53.082Z,102366.44
2023-01-03T19:53:17.076Z,102361.94
2023-01-03T19:55:43.982Z,102362.84
2023-01-03T19:58:16.995Z,102353.91
2023-01-03T20:00:40.582Z,102353.75
2023-01-03T20:03:08.065Z,102357.16
2023-01-03T20:05:36.112Z,102362.31
2023-01-03T20:08:04.541Z,102348.66
2023-01-03T20:10:36.995Z,102352.31
2023-01-03T20:13:03.549Z,102351.91
2023-01-03T20:15:29.510Z,102345.69
2023-01-03T20:17:54.120Z,102345.50
2023-01-03T20:20:18.177Z,102349.13
2023-01-03T20:25:31.422Z,102349.13
2023-01-03T20:27:56.529Z,102341.22
2023-01-03T20:30:22.676Z,102330.88
2023-01-03T20:32:46.438Z,102336.38
2023-01-03T20:36:06.286Z,102330.13
2023-01-03T20:38:00.029Z,102318.34
2023-01-03T20:40:27.514Z,102325.28
2023-01-03T20:42:51.767Z,102321.72
2023-01-03T20:45:17.038Z,102322.50
2023-01-03T20:47:41.456Z,102315.47
2023-01-03T20:50:05.867Z,102316.28
2023-01-03T20:52:29.453Z,102320.75
2023-01-03T20:54:53.290Z,102316.47
2023-01-03T20:57:21.254Z,102317.38
2023-01-03T20:59:45.692Z,102316.75
2023-01-03T21:02:11.618Z,102319.25
2023-01-03T21:04:35.276Z,102319.41
2023-01-03T21:06:58.919Z,102321.78
2023-01-03T21:09:21.428Z,102313.28
2023-01-03T21:11:46.716Z,102316.13
2023-01-03T21:14:11.774Z,102314.91
2023-01-03T21:16:37.653Z,102304.28
2023-01-03T21:19:07.866Z,102300.50
2023-01-03T21:21:33.388Z,102299.84
2023-01-03T21:23:57.045Z,102306.44
2023-01-03T21:26:20.715Z,102301.28
2023-01-03T21:28:44.243Z,102302.25
2023-01-03T21:31:16.664Z,102301.88
2023-01-03T21:33:40.289Z,102287.31
2023-01-03T21:36:03.812Z,102289.97
2023-01-03T21:38:27.469Z,102285.75
2023-01-03T21:40:51.468Z,102286.19
2023-01-03T21:43:15.163Z,102286.22
2023-01-03T21:45:42.238Z,102290.44
2023-01-03T21:48:11.562Z,102296.63
2023-01-03T21:50:36.248Z,102289.22
2023-01-03T21:53:00.066Z,102297.16
2023-01-03T21:55:24.463Z,102293.56
2023-01-03T21:57:49.112Z,102297.00
2023-01-03T22:00:14.491Z,102290.69
2023-01-03T22:02:59.982Z,102296.56
2023-01-03T22:05:25.472Z,102296.50
2023-01-03T22:07:49.005Z,102297.13
2023-01-03T22:10:19.060Z,102296.00
2023-01-03T22:12:42.681Z,102291.44
2023-01-03T22:15:07.855Z,102288.56
2023-01-03T22:17:31.362Z,102284.44
2023-01-03T22:19:54.884Z,102281.25
2023-01-03T22:22:19.831Z,102273.03
2023-01-03T22:24:43.710Z,102268.47
2023-01-03T22:27:07.506Z,102270.31
2023-01-03T22:29:31.447Z,102266.94
2023-01-03T22:31:55.153Z,102273.09
2023-01-03T22:34:18.830Z,102272.94
2023-01-03T22:36:42.407Z,102265.56
2023-01-03T22:39:07.400Z,102258.13
2023-01-03T22:41:31.066Z,102253.53
2023-01-03T22:43:54.922Z,102241.28
2023-01-03T22:46:19.102Z,102246.72
2023-01-03T22:48:43.629Z,102248.06
2023-01-03T22:51:09.507Z,102248.53
2023-01-03T22:53:35.245Z,102250.56
2023-01-03T22:56:00.228Z,102247.88
2023-01-03T22:58:23.790Z,102233.41
2023-01-03T23:00:47.420Z,102234.88
2023-01-03T23:03:10.981Z,102226.72
2023-01-03T23:05:37.252Z,102236.19
2023-01-03T23:08:00.840Z,102234.50
2023-01-03T23:10:24.412Z,102235.41
2023-01-03T23:13:01.041Z,102228.56
2023-01-03T23:15:24.952Z,102224.84
2023-01-03T23:17:57.581Z,102213.28
2023-01-03T23:20:21.219Z,102214.41
2023-01-03T23:22:44.762Z,102215.56
2023-01-03T23:25:09.911Z,102208.63
2023-01-03T23:27:33.877Z,102201.53
2023-01-03T23:29:58.849Z,102198.88
2023-01-03T23:32:22.468Z,102192.94
2023-01-03T23:34:46.038Z,102199.63
2023-01-03T23:37:09.671Z,102199.69
2023-01-03T23:39:33.276Z,102193.63
2023-01-03T23:41:57.225Z,102196.50
2023-01-03T23:44:20.818Z,102191.41
2023-01-03T23:46:45.747Z,102195.19
2023-01-03T23:49:11.381Z,102193.63
2023-01-03T23:51:34.936Z,102182.16
2023-01-03T23:53:58.517Z,102185.81
2023-01-03T23:56:24.909Z,102172.56
2023-01-03T23:58:48.938Z,102172.56
